sensor_id;sensor_type;location;lat;lon;timestamp;P1;durP1;ratioP1;P2;durP2;ratioP2
14876;SDS011;69691;48.172;17.070;2023-05-07T00:00:03;18.42;;;14.02;;
14876;SDS011;69691;48.172;17.070;2023-05-07T00:02:33;17.40;;;13.65;;
14876;SDS011;69691;48.172;17.070;2023-05-07T00:05:00;20.52;;;12.82;;
14876;SDS011;69691;48.172;17.070;2023-05-07T00:07:27;18.52;;;14.93;;
14876;SDS011;69691;48.172;17.070;2023-05-07T00:09:53;19.63;;;14.55;;
14876;SDS011;69691;48.172;17.070;2023-05-07T00:12:19;20.17;;;14.38;;
14876;SDS011;69691;48.172;17.070;2023-05-07T00:14:45;27.35;;;16.08;;
14876;SDS011;69691;48.172;17.070;2023-05-07T00:17:11;21.02;;;15.43;;
14876;SDS011;69691;48.172;17.070;2023-05-07T00:19:37;20.45;;;16.13;;
14876;SDS011;69691;48.172;17.070;2023-05-07T00:22:03;22.98;;;15.50;;
14876;SDS011;69691;48.172;17.070;2023-05-07T00:24:28;24.83;;;16.42;;
14876;SDS011;69691;48.172;17.070;2023-05-07T00:26:54;17.05;;;14.60;;
14876;SDS011;69691;48.172;17.070;2023-05-07T00:29:20;18.52;;;15.77;;
14876;SDS011;69691;48.172;17.070;2023-05-07T00:31:46;19.45;;;16.63;;
14876;SDS011;69691;48.172;17.070;2023-05-07T00:34:14;21.25;;;15.73;;
14876;SDS011;69691;48.172;17.070;2023-05-07T00:36:40;19.25;;;15.73;;
14876;SDS011;69691;48.172;17.070;2023-05-07T00:39:06;26.60;;;16.88;;
14876;SDS011;69691;48.172;17.070;2023-05-07T00:41:32;27.17;;;17.33;;
14876;SDS011;69691;48.172;17.070;2023-05-07T00:43:57;18.75;;;15.35;;
14876;SDS011;69691;48.172;17.070;2023-05-07T00:46:23;23.45;;;18.38;;
14876;SDS011;69691;48.172;17.070;2023-05-07T00:48:50;30.83;;;19.05;;
14876;SDS011;69691;48.172;17.070;2023-05-07T00:51:17;30.77;;;18.88;;
14876;SDS011;69691;48.172;17.070;2023-05-07T00:53:43;27.52;;;19.10;;
14876;SDS011;69691;48.172;17.070;2023-05-07T00:56:09;26.63;;;18.70;;
14876;SDS011;69691;48.172;17.070;2023-05-07T00:58:36;30.85;;;19.00;;
14876;SDS011;69691;48.172;17.070;2023-05-07T01:01:02;28.48;;;20.83;;
14876;SDS011;69691;48.172;17.070;2023-05-07T01:03:28;32.78;;;20.30;;
14876;SDS011;69691;48.172;17.070;2023-05-07T01:05:55;28.65;;;20.67;;
14876;SDS011;69691;48.172;17.070;2023-05-07T01:08:23;29.45;;;21.77;;
14876;SDS011;69691;48.172;17.070;2023-05-07T01:10:52;29.80;;;20.55;;
14876;SDS011;69691;48.172;17.070;2023-05-07T01:13:18;29.33;;;22.13;;
14876;SDS011;69691;48.172;17.070;2023-05-07T01:15:45;29.05;;;20.58;;
14876;SDS011;69691;48.172;17.070;2023-05-07T01:18:11;33.58;;;22.13;;
14876;SDS011;69691;48.172;17.070;2023-05-07T01:20:39;34.58;;;24.30;;
14876;SDS011;69691;48.172;17.070;2023-05-07T01:23:05;32.10;;;23.92;;
14876;SDS011;69691;48.172;17.070;2023-05-07T01:25:32;29.13;;;21.27;;
14876;SDS011;69691;48.172;17.070;2023-05-07T01:28:00;44.88;;;26.45;;
14876;SDS011;69691;48.172;17.070;2023-05-07T01:30:29;39.58;;;25.00;;
14876;SDS011;69691;48.172;17.070;2023-05-07T01:33:01;33.08;;;23.33;;
14876;SDS011;69691;48.172;17.070;2023-05-07T01:35:39;32.92;;;23.83;;
14876;SDS011;69691;48.172;17.070;2023-05-07T01:38:09;35.47;;;24.55;;
14876;SDS011;69691;48.172;17.070;2023-05-07T01:40:36;33.55;;;21.55;;
14876;SDS011;69691;48.172;17.070;2023-05-07T01:43:03;32.45;;;22.58;;
14876;SDS011;69691;48.172;17.070;2023-05-07T01:45:31;29.58;;;20.83;;
14876;SDS011;69691;48.172;17.070;2023-05-07T01:47:59;29.25;;;21.23;;
14876;SDS011;69691;48.172;17.070;2023-05-07T01:50:26;33.80;;;22.33;;
14876;SDS011;69691;48.172;17.070;2023-05-07T01:52:53;26.92;;;20.60;;
14876;SDS011;69691;48.172;17.070;2023-05-07T01:55:19;32.53;;;22.58;;
14876;SDS011;69691;48.172;17.070;2023-05-07T01:57:45;27.10;;;21.27;;
14876;SDS011;69691;48.172;17.070;2023-05-07T02:00:11;32.67;;;23.85;;
14876;SDS011;69691;48.172;17.070;2023-05-07T02:02:40;34.15;;;23.85;;
14876;SDS011;69691;48.172;17.070;2023-05-07T02:05:14;32.20;;;25.10;;
14876;SDS011;69691;48.172;17.070;2023-05-07T02:07:42;38.83;;;25.73;;
14876;SDS011;69691;48.172;17.070;2023-05-07T02:10:08;40.28;;;26.30;;
14876;SDS011;69691;48.172;17.070;2023-05-07T02:12:34;34.80;;;24.02;;
14876;SDS011;69691;48.172;17.070;2023-05-07T02:15:00;36.58;;;25.42;;
14876;SDS011;69691;48.172;17.070;2023-05-07T02:17:26;42.05;;;26.40;;
14876;SDS011;69691;48.172;17.070;2023-05-07T02:19:52;31.45;;;23.40;;
14876;SDS011;69691;48.172;17.070;2023-05-07T02:22:18;36.97;;;25.42;;
14876;SDS011;69691;48.172;17.070;2023-05-07T02:24:44;37.95;;;23.95;;
14876;SDS011;69691;48.172;17.070;2023-05-07T02:27:10;38.47;;;24.13;;
14876;SDS011;69691;48.172;17.070;2023-05-07T02:29:36;32.30;;;23.83;;
14876;SDS011;69691;48.172;17.070;2023-05-07T02:32:02;28.58;;;22.50;;
14876;SDS011;69691;48.172;17.070;2023-05-07T02:34:28;33.08;;;23.70;;
14876;SDS011;69691;48.172;17.070;2023-05-07T02:36:54;30.38;;;24.35;;
14876;SDS011;69691;48.172;17.070;2023-05-07T02:39:23;32.63;;;24.63;;
14876;SDS011;69691;48.172;17.070;2023-05-07T02:41:49;33.75;;;24.40;;
14876;SDS011;69691;48.172;17.070;2023-05-07T02:44:14;31.88;;;24.95;;
14876;SDS011;69691;48.172;17.070;2023-05-07T02:46:41;35.70;;;26.40;;
14876;SDS011;69691;48.172;17.070;2023-05-07T02:49:10;37.08;;;26.02;;
14876;SDS011;69691;48.172;17.070;2023-05-07T02:51:35;34.92;;;24.98;;
14876;SDS011;69691;48.172;17.070;2023-05-07T02:54:05;34.47;;;25.17;;
14876;SDS011;69691;48.172;17.070;2023-05-07T02:56:32;35.33;;;24.80;;
14876;SDS011;69691;48.172;17.070;2023-05-07T02:58:58;27.88;;;22.90;;
14876;SDS011;69691;48.172;17.070;2023-05-07T03:01:28;35.80;;;24.88;;
14876;SDS011;69691;48.172;17.070;2023-05-07T03:04:01;31.77;;;26.13;;
14876;SDS011;69691;48.172;17.070;2023-05-07T03:06:27;36.78;;;27.02;;
14876;SDS011;69691;48.172;17.070;2023-05-07T03:08:53;38.35;;;26.38;;
14876;SDS011;69691;48.172;17.070;2023-05-07T03:11:19;40.00;;;28.88;;
14876;SDS011;69691;48.172;17.070;2023-05-07T03:13:45;37.60;;;28.92;;
14876;SDS011;69691;48.172;17.070;2023-05-07T03:16:11;44.47;;;31.75;;
14876;SDS011;69691;48.172;17.070;2023-05-07T03:18:37;46.92;;;31.45;;
14876;SDS011;69691;48.172;17.070;2023-05-07T03:21:02;49.60;;;33.10;;
14876;SDS011;69691;48.172;17.070;2023-05-07T03:23:28;51.47;;;34.92;;
14876;SDS011;69691;48.172;17.070;2023-05-07T03:25:54;50.90;;;34.70;;
14876;SDS011;69691;48.172;17.070;2023-05-07T03:28:20;49.28;;;34.10;;
14876;SDS011;69691;48.172;17.070;2023-05-07T03:30:52;42.15;;;31.92;;
14876;SDS011;69691;48.172;17.070;2023-05-07T03:33:17;50.78;;;34.03;;
14876;SDS011;69691;48.172;17.070;2023-05-07T03:35:44;41.88;;;31.45;;
14876;SDS011;69691;48.172;17.070;2023-05-07T03:38:12;38.75;;;30.50;;
14876;SDS011;69691;48.172;17.070;2023-05-07T03:40:38;39.97;;;29.27;;
14876;SDS011;69691;48.172;17.070;2023-05-07T03:43:04;32.65;;;27.30;;
14876;SDS011;69691;48.172;17.070;2023-05-07T03:45:32;34.35;;;27.08;;
14876;SDS011;69691;48.172;17.070;2023-05-07T03:48:08;34.25;;;26.10;;
14876;SDS011;69691;48.172;17.070;2023-05-07T03:50:35;31.38;;;26.20;;
14876;SDS011;69691;48.172;17.070;2023-05-07T03:53:01;32.45;;;26.25;;
14876;SDS011;69691;48.172;17.070;2023-05-07T03:55:29;39.38;;;25.48;;
14876;SDS011;69691;48.172;17.070;2023-05-07T03:57:58;30.15;;;24.83;;
14876;SDS011;69691;48.172;17.070;2023-05-07T04:00:26;29.70;;;23.20;;
14876;SDS011;69691;48.172;17.070;2023-05-07T04:02:52;47.72;;;24.25;;
14876;SDS011;69691;48.172;17.070;2023-05-07T04:05:24;25.15;;;22.42;;
14876;SDS011;69691;48.172;17.070;2023-05-07T04:07:55;25.10;;;21.92;;
14876;SDS011;69691;48.172;17.070;2023-05-07T04:10:27;30.02;;;22.92;;
14876;SDS011;69691;48.172;17.070;2023-05-07T04:12:56;24.33;;;21.45;;
14876;SDS011;69691;48.172;17.070;2023-05-07T04:15:24;23.30;;;20.80;;
14876;SDS011;69691;48.172;17.070;2023-05-07T04:17:50;24.98;;;21.55;;
14876;SDS011;69691;48.172;17.070;2023-05-07T04:20:18;25.75;;;22.25;;
14876;SDS011;69691;48.172;17.070;2023-05-07T04:22:49;22.38;;;19.10;;
14876;SDS011;69691;48.172;17.070;2023-05-07T04:25:15;22.15;;;19.63;;
14876;SDS011;69691;48.172;17.070;2023-05-07T04:27:41;33.20;;;18.98;;
14876;SDS011;69691;48.172;17.070;2023-05-07T04:30:07;21.27;;;18.08;;
14876;SDS011;69691;48.172;17.070;2023-05-07T04:32:37;20.15;;;17.60;;
14876;SDS011;69691;48.172;17.070;2023-05-07T04:35:04;19.65;;;17.65;;
14876;SDS011;69691;48.172;17.070;2023-05-07T04:37:34;19.33;;;17.35;;
14876;SDS011;69691;48.172;17.070;2023-05-07T04:40:01;29.40;;;16.27;;
14876;SDS011;69691;48.172;17.070;2023-05-07T04:42:28;29.42;;;17.95;;
14876;SDS011;69691;48.172;17.070;2023-05-07T04:44:54;23.10;;;17.20;;
14876;SDS011;69691;48.172;17.070;2023-05-07T04:47:22;36.78;;;18.27;;
14876;SDS011;69691;48.172;17.070;2023-05-07T04:49:49;24.25;;;16.85;;
14876;SDS011;69691;48.172;17.070;2023-05-07T04:52:14;25.88;;;18.42;;
14876;SDS011;69691;48.172;17.070;2023-05-07T04:54:40;32.55;;;19.10;;
14876;SDS011;69691;48.172;17.070;2023-05-07T04:57:07;40.22;;;18.75;;
14876;SDS011;69691;48.172;17.070;2023-05-07T04:59:33;27.70;;;17.90;;
14876;SDS011;69691;48.172;17.070;2023-05-07T05:01:59;32.55;;;16.38;;
14876;SDS011;69691;48.172;17.070;2023-05-07T05:04:25;27.13;;;17.02;;
14876;SDS011;69691;48.172;17.070;2023-05-07T05:06:51;38.55;;;17.08;;
14876;SDS011;69691;48.172;17.070;2023-05-07T05:09:17;31.13;;;16.20;;
14876;SDS011;69691;48.172;17.070;2023-05-07T05:11:44;28.00;;;16.13;;
14876;SDS011;69691;48.172;17.070;2023-05-07T05:14:10;18.90;;;16.17;;
14876;SDS011;69691;48.172;17.070;2023-05-07T05:16:36;55.47;;;16.58;;
14876;SDS011;69691;48.172;17.070;2023-05-07T05:19:02;21.60;;;15.93;;
14876;SDS011;69691;48.172;17.070;2023-05-07T05:21:32;29.10;;;16.52;;
14876;SDS011;69691;48.172;17.070;2023-05-07T05:24:04;19.33;;;16.17;;
14876;SDS011;69691;48.172;17.070;2023-05-07T05:26:30;27.65;;;15.23;;
14876;SDS011;69691;48.172;17.070;2023-05-07T05:28:56;40.08;;;16.17;;
14876;SDS011;69691;48.172;17.070;2023-05-07T05:31:24;27.13;;;16.27;;
14876;SDS011;69691;48.172;17.070;2023-05-07T05:33:50;27.75;;;15.77;;
14876;SDS011;69691;48.172;17.070;2023-05-07T05:36:16;25.30;;;16.85;;
14876;SDS011;69691;48.172;17.070;2023-05-07T05:38:44;23.10;;;17.60;;
14876;SDS011;69691;48.172;17.070;2023-05-07T05:41:11;19.70;;;17.05;;
14876;SDS011;69691;48.172;17.070;2023-05-07T05:43:37;18.88;;;16.98;;
14876;SDS011;69691;48.172;17.070;2023-05-07T05:46:03;30.30;;;17.52;;
14876;SDS011;69691;48.172;17.070;2023-05-07T05:48:29;24.33;;;18.92;;
14876;SDS011;69691;48.172;17.070;2023-05-07T05:50:56;24.88;;;16.73;;
14876;SDS011;69691;48.172;17.070;2023-05-07T05:53:22;26.27;;;18.00;;
14876;SDS011;69691;48.172;17.070;2023-05-07T05:55:49;27.83;;;17.95;;
14876;SDS011;69691;48.172;17.070;2023-05-07T05:58:15;30.95;;;19.75;;
14876;SDS011;69691;48.172;17.070;2023-05-07T06:00:47;27.60;;;19.30;;
14876;SDS011;69691;48.172;17.070;2023-05-07T06:03:14;32.03;;;19.80;;
14876;SDS011;69691;48.172;17.070;2023-05-07T06:05:41;29.45;;;20.42;;
14876;SDS011;69691;48.172;17.070;2023-05-07T06:08:07;22.83;;;18.67;;
14876;SDS011;69691;48.172;17.070;2023-05-07T06:10:35;22.70;;;17.63;;
14876;SDS011;69691;48.172;17.070;2023-05-07T06:13:03;40.83;;;20.70;;
14876;SDS011;69691;48.172;17.070;2023-05-07T06:15:30;24.23;;;20.88;;
14876;SDS011;69691;48.172;17.070;2023-05-07T06:18:01;28.38;;;22.17;;
14876;SDS011;69691;48.172;17.070;2023-05-07T06:20:26;30.25;;;24.42;;
14876;SDS011;69691;48.172;17.070;2023-05-07T06:22:52;32.30;;;24.88;;
14876;SDS011;69691;48.172;17.070;2023-05-07T06:25:18;35.53;;;26.38;;
14876;SDS011;69691;48.172;17.070;2023-05-07T06:27:45;42.45;;;28.75;;
14876;SDS011;69691;48.172;17.070;2023-05-07T06:30:11;35.47;;;28.40;;
14876;SDS011;69691;48.172;17.070;2023-05-07T06:32:37;36.10;;;28.05;;
14876;SDS011;69691;48.172;17.070;2023-05-07T06:35:03;34.60;;;28.35;;
14876;SDS011;69691;48.172;17.070;2023-05-07T06:37:29;35.95;;;29.02;;
14876;SDS011;69691;48.172;17.070;2023-05-07T06:40:00;38.38;;;28.50;;
14876;SDS011;69691;48.172;17.070;2023-05-07T06:42:26;33.03;;;27.55;;
14876;SDS011;69691;48.172;17.070;2023-05-07T06:44:57;37.08;;;28.65;;
14876;SDS011;69691;48.172;17.070;2023-05-07T06:47:23;31.08;;;25.80;;
14876;SDS011;69691;48.172;17.070;2023-05-07T06:49:52;33.33;;;24.55;;
14876;SDS011;69691;48.172;17.070;2023-05-07T06:52:22;32.78;;;25.30;;
14876;SDS011;69691;48.172;17.070;2023-05-07T06:54:49;31.73;;;25.05;;
14876;SDS011;69691;48.172;17.070;2023-05-07T06:57:18;32.60;;;24.48;;
14876;SDS011;69691;48.172;17.070;2023-05-07T06:59:44;34.15;;;27.52;;
14876;SDS011;69691;48.172;17.070;2023-05-07T07:02:10;35.13;;;26.30;;
14876;SDS011;69691;48.172;17.070;2023-05-07T07:04:37;37.10;;;27.70;;
14876;SDS011;69691;48.172;17.070;2023-05-07T07:07:07;34.88;;;27.73;;
14876;SDS011;69691;48.172;17.070;2023-05-07T07:09:34;35.25;;;26.52;;
14876;SDS011;69691;48.172;17.070;2023-05-07T07:12:02;34.60;;;26.58;;
14876;SDS011;69691;48.172;17.070;2023-05-07T07:14:29;31.13;;;25.67;;
14876;SDS011;69691;48.172;17.070;2023-05-07T07:16:55;34.97;;;27.05;;
14876;SDS011;69691;48.172;17.070;2023-05-07T07:19:23;32.53;;;25.73;;
14876;SDS011;69691;48.172;17.070;2023-05-07T07:21:51;28.08;;;24.30;;
14876;SDS011;69691;48.172;17.070;2023-05-07T07:24:18;27.15;;;22.30;;
14876;SDS011;69691;48.172;17.070;2023-05-07T07:26:48;28.63;;;22.27;;
14876;SDS011;69691;48.172;17.070;2023-05-07T07:29:13;25.25;;;22.55;;
14876;SDS011;69691;48.172;17.070;2023-05-07T07:31:41;24.88;;;21.95;;
14876;SDS011;69691;48.172;17.070;2023-05-07T07:34:08;22.52;;;19.30;;
14876;SDS011;69691;48.172;17.070;2023-05-07T07:36:34;26.92;;;21.95;;
14876;SDS011;69691;48.172;17.070;2023-05-07T07:39:00;21.80;;;18.70;;
14876;SDS011;69691;48.172;17.070;2023-05-07T07:41:26;23.30;;;20.13;;
14876;SDS011;69691;48.172;17.070;2023-05-07T07:43:52;23.80;;;20.60;;
14876;SDS011;69691;48.172;17.070;2023-05-07T07:46:19;22.50;;;19.48;;
14876;SDS011;69691;48.172;17.070;2023-05-07T07:48:45;23.48;;;20.38;;
14876;SDS011;69691;48.172;17.070;2023-05-07T07:51:11;22.70;;;19.80;;
14876;SDS011;69691;48.172;17.070;2023-05-07T07:53:38;24.23;;;20.42;;
14876;SDS011;69691;48.172;17.070;2023-05-07T07:56:04;24.02;;;20.85;;
14876;SDS011;69691;48.172;17.070;2023-05-07T07:58:32;25.00;;;22.38;;
14876;SDS011;69691;48.172;17.070;2023-05-07T08:00:59;25.27;;;20.63;;
14876;SDS011;69691;48.172;17.070;2023-05-07T08:03:25;20.77;;;18.48;;
14876;SDS011;69691;48.172;17.070;2023-05-07T08:05:56;22.85;;;18.42;;
14876;SDS011;69691;48.172;17.070;2023-05-07T08:08:22;19.55;;;17.55;;
14876;SDS011;69691;48.172;17.070;2023-05-07T08:10:48;21.05;;;18.45;;
14876;SDS011;69691;48.172;17.070;2023-05-07T08:13:22;23.38;;;19.58;;
14876;SDS011;69691;48.172;17.070;2023-05-07T08:15:48;19.85;;;17.75;;
14876;SDS011;69691;48.172;17.070;2023-05-07T08:18:15;22.50;;;18.55;;
14876;SDS011;69691;48.172;17.070;2023-05-07T08:20:42;21.23;;;18.95;;
14876;SDS011;69691;48.172;17.070;2023-05-07T08:23:13;18.83;;;16.83;;
14876;SDS011;69691;48.172;17.070;2023-05-07T08:25:42;19.42;;;16.67;;
14876;SDS011;69691;48.172;17.070;2023-05-07T08:28:08;19.52;;;16.60;;
14876;SDS011;69691;48.172;17.070;2023-05-07T08:30:34;16.73;;;15.00;;
14876;SDS011;69691;48.172;17.070;2023-05-07T08:33:00;16.58;;;14.90;;
14876;SDS011;69691;48.172;17.070;2023-05-07T08:35:26;16.55;;;14.85;;
14876;SDS011;69691;48.172;17.070;2023-05-07T08:37:53;16.95;;;15.18;;
14876;SDS011;69691;48.172;17.070;2023-05-07T08:40:21;19.33;;;17.33;;
14876;SDS011;69691;48.172;17.070;2023-05-07T08:42:51;17.58;;;15.77;;
14876;SDS011;69691;48.172;17.070;2023-05-07T08:45:19;20.88;;;16.98;;
14876;SDS011;69691;48.172;17.070;2023-05-07T08:47:52;17.77;;;15.88;;
14876;SDS011;69691;48.172;17.070;2023-05-07T08:50:32;17.55;;;15.68;;
14876;SDS011;69691;48.172;17.070;2023-05-07T08:53:03;17.50;;;15.35;;
14876;SDS011;69691;48.172;17.070;2023-05-07T08:55:30;16.52;;;14.80;;
14876;SDS011;69691;48.172;17.070;2023-05-07T08:57:56;17.08;;;15.27;;
14876;SDS011;69691;48.172;17.070;2023-05-07T09:00:22;16.85;;;15.15;;
14876;SDS011;69691;48.172;17.070;2023-05-07T09:02:50;20.27;;;15.88;;
14876;SDS011;69691;48.172;17.070;2023-05-07T09:05:17;17.73;;;15.85;;
14876;SDS011;69691;48.172;17.070;2023-05-07T09:07:44;16.63;;;14.95;;
14876;SDS011;69691;48.172;17.070;2023-05-07T09:10:13;17.15;;;15.45;;
14876;SDS011;69691;48.172;17.070;2023-05-07T09:12:40;16.65;;;14.98;;
14876;SDS011;69691;48.172;17.070;2023-05-07T09:15:08;16.83;;;15.02;;
14876;SDS011;69691;48.172;17.070;2023-05-07T09:17:35;16.42;;;14.15;;
14876;SDS011;69691;48.172;17.070;2023-05-07T09:20:02;16.85;;;14.23;;
14876;SDS011;69691;48.172;17.070;2023-05-07T09:22:33;13.93;;;12.60;;
14876;SDS011;69691;48.172;17.070;2023-05-07T09:25:06;16.95;;;13.95;;
14876;SDS011;69691;48.172;17.070;2023-05-07T09:27:32;16.17;;;13.55;;
14876;SDS011;69691;48.172;17.070;2023-05-07T09:29:59;16.13;;;13.80;;
14876;SDS011;69691;48.172;17.070;2023-05-07T09:32:28;14.52;;;12.60;;
14876;SDS011;69691;48.172;17.070;2023-05-07T09:34:56;13.60;;;12.20;;
14876;SDS011;69691;48.172;17.070;2023-05-07T09:37:25;14.77;;;13.32;;
14876;SDS011;69691;48.172;17.070;2023-05-07T09:39:51;13.48;;;12.07;;
14876;SDS011;69691;48.172;17.070;2023-05-07T09:42:24;14.68;;;12.43;;
14876;SDS011;69691;48.172;17.070;2023-05-07T09:44:53;17.43;;;14.03;;
14876;SDS011;69691;48.172;17.070;2023-05-07T09:47:23;14.25;;;12.95;;
14876;SDS011;69691;48.172;17.070;2023-05-07T09:49:54;16.23;;;13.82;;
14876;SDS011;69691;48.172;17.070;2023-05-07T09:52:23;14.75;;;13.25;;
14876;SDS011;69691;48.172;17.070;2023-05-07T09:54:53;13.52;;;11.48;;
14876;SDS011;69691;48.172;17.070;2023-05-07T09:57:23;13.13;;;11.75;;
14876;SDS011;69691;48.172;17.070;2023-05-07T09:59:55;14.15;;;11.93;;
14876;SDS011;69691;48.172;17.070;2023-05-07T10:02:25;13.02;;;11.63;;
14876;SDS011;69691;48.172;17.070;2023-05-07T10:04:53;13.73;;;12.43;;
14876;SDS011;69691;48.172;17.070;2023-05-07T10:07:25;13.75;;;12.27;;
14876;SDS011;69691;48.172;17.070;2023-05-07T10:09:55;15.68;;;12.68;;
14876;SDS011;69691;48.172;17.070;2023-05-07T10:12:29;15.20;;;13.63;;
14876;SDS011;69691;48.172;17.070;2023-05-07T10:15:03;14.07;;;12.73;;
14876;SDS011;69691;48.172;17.070;2023-05-07T10:17:36;15.88;;;14.30;;
14876;SDS011;69691;48.172;17.070;2023-05-07T10:20:04;15.32;;;13.15;;
14876;SDS011;69691;48.172;17.070;2023-05-07T10:22:40;16.25;;;12.23;;
14876;SDS011;69691;48.172;17.070;2023-05-07T10:25:14;14.02;;;12.63;;
14876;SDS011;69691;48.172;17.070;2023-05-07T10:27:46;16.05;;;12.75;;
14876;SDS011;69691;48.172;17.070;2023-05-07T10:32:55;14.38;;;11.55;;
14876;SDS011;69691;48.172;17.070;2023-05-07T10:35:37;16.75;;;12.15;;
14876;SDS011;69691;48.172;17.070;2023-05-07T10:38:07;14.43;;;13.02;;
14876;SDS011;69691;48.172;17.070;2023-05-07T10:40:36;12.68;;;10.90;;
14876;SDS011;69691;48.172;17.070;2023-05-07T10:43:03;16.60;;;11.38;;
14876;SDS011;69691;48.172;17.070;2023-05-07T10:45:37;16.38;;;11.60;;
14876;SDS011;69691;48.172;17.070;2023-05-07T10:48:16;12.65;;;11.30;;
14876;SDS011;69691;48.172;17.070;2023-05-07T10:50:49;14.20;;;10.30;;
14876;SDS011;69691;48.172;17.070;2023-05-07T10:53:46;10.68;;;9.68;;
14876;SDS011;69691;48.172;17.070;2023-05-07T10:58:48;9.93;;;9.02;;
14876;SDS011;69691;48.172;17.070;2023-05-07T11:08:08;7.97;;;7.20;;
14876;SDS011;69691;48.172;17.070;2023-05-07T11:13:45;10.00;;;7.95;;
14876;SDS011;69691;48.172;17.070;2023-05-07T11:16:21;14.05;;;7.22;;
14876;SDS011;69691;48.172;17.070;2023-05-07T11:18:57;7.80;;;6.85;;
14876;SDS011;69691;48.172;17.070;2023-05-07T11:21:36;11.10;;;8.15;;
14876;SDS011;69691;48.172;17.070;2023-05-07T11:24:21;11.57;;;7.20;;
14876;SDS011;69691;48.172;17.070;2023-05-07T11:26:59;7.53;;;6.75;;
14876;SDS011;69691;48.172;17.070;2023-05-07T11:29:26;7.90;;;7.10;;
14876;SDS011;69691;48.172;17.070;2023-05-07T11:31:58;7.57;;;6.88;;
14876;SDS011;69691;48.172;17.070;2023-05-07T11:34:29;8.68;;;7.88;;
14876;SDS011;69691;48.172;17.070;2023-05-07T11:36:57;8.07;;;7.28;;
14876;SDS011;69691;48.172;17.070;2023-05-07T11:39:37;7.63;;;7.03;;
14876;SDS011;69691;48.172;17.070;2023-05-07T11:42:03;8.40;;;7.60;;
14876;SDS011;69691;48.172;17.070;2023-05-07T11:44:41;8.20;;;7.28;;
14876;SDS011;69691;48.172;17.070;2023-05-07T11:47:11;9.07;;;7.15;;
14876;SDS011;69691;48.172;17.070;2023-05-07T11:49:42;8.90;;;6.97;;
14876;SDS011;69691;48.172;17.070;2023-05-07T11:52:09;7.88;;;7.18;;
14876;SDS011;69691;48.172;17.070;2023-05-07T11:54:37;7.28;;;6.68;;
14876;SDS011;69691;48.172;17.070;2023-05-07T11:57:03;7.25;;;6.05;;
14876;SDS011;69691;48.172;17.070;2023-05-07T11:59:29;9.55;;;6.40;;
14876;SDS011;69691;48.172;17.070;2023-05-07T12:01:57;6.72;;;6.13;;
14876;SDS011;69691;48.172;17.070;2023-05-07T12:04:28;9.88;;;6.60;;
14876;SDS011;69691;48.172;17.070;2023-05-07T12:06:55;6.82;;;6.13;;
14876;SDS011;69691;48.172;17.070;2023-05-07T12:09:21;11.70;;;7.47;;
14876;SDS011;69691;48.172;17.070;2023-05-07T12:11:47;6.93;;;6.25;;
14876;SDS011;69691;48.172;17.070;2023-05-07T12:14:13;7.30;;;6.38;;
14876;SDS011;69691;48.172;17.070;2023-05-07T12:16:41;7.10;;;5.47;;
14876;SDS011;69691;48.172;17.070;2023-05-07T12:19:08;6.20;;;5.70;;
14876;SDS011;69691;48.172;17.070;2023-05-07T12:21:37;9.95;;;6.20;;
14876;SDS011;69691;48.172;17.070;2023-05-07T12:24:04;8.93;;;6.13;;
14876;SDS011;69691;48.172;17.070;2023-05-07T12:26:30;6.80;;;6.20;;
14876;SDS011;69691;48.172;17.070;2023-05-07T12:28:59;6.75;;;6.15;;
14876;SDS011;69691;48.172;17.070;2023-05-07T12:31:25;6.22;;;5.63;;
14876;SDS011;69691;48.172;17.070;2023-05-07T12:33:52;5.95;;;5.45;;
14876;SDS011;69691;48.172;17.070;2023-05-07T12:36:17;6.00;;;5.50;;
14876;SDS011;69691;48.172;17.070;2023-05-07T12:38:43;5.32;;;4.82;;
14876;SDS011;69691;48.172;17.070;2023-05-07T12:41:10;6.28;;;5.38;;
14876;SDS011;69691;48.172;17.070;2023-05-07T12:43:37;5.90;;;5.30;;
14876;SDS011;69691;48.172;17.070;2023-05-07T12:46:04;6.65;;;4.57;;
14876;SDS011;69691;48.172;17.070;2023-05-07T12:48:32;7.75;;;5.53;;
14876;SDS011;69691;48.172;17.070;2023-05-07T12:50:59;5.70;;;5.20;;
14876;SDS011;69691;48.172;17.070;2023-05-07T12:53:27;5.55;;;5.10;;
14876;SDS011;69691;48.172;17.070;2023-05-07T12:55:57;5.68;;;5.18;;
14876;SDS011;69691;48.172;17.070;2023-05-07T12:58:28;5.90;;;5.30;;
14876;SDS011;69691;48.172;17.070;2023-05-07T13:00:59;7.40;;;5.60;;
14876;SDS011;69691;48.172;17.070;2023-05-07T13:03:30;5.80;;;5.28;;
14876;SDS011;69691;48.172;17.070;2023-05-07T13:06:03;5.15;;;4.75;;
14876;SDS011;69691;48.172;17.070;2023-05-07T13:08:32;5.95;;;4.90;;
14876;SDS011;69691;48.172;17.070;2023-05-07T13:11:06;7.30;;;5.00;;
14876;SDS011;69691;48.172;17.070;2023-05-07T13:13:34;10.60;;;5.57;;
14876;SDS011;69691;48.172;17.070;2023-05-07T13:16:01;5.38;;;4.90;;
14876;SDS011;69691;48.172;17.070;2023-05-07T13:18:32;6.00;;;4.60;;
14876;SDS011;69691;48.172;17.070;2023-05-07T13:20:59;4.93;;;4.53;;
14876;SDS011;69691;48.172;17.070;2023-05-07T13:23:26;5.10;;;4.70;;
14876;SDS011;69691;48.172;17.070;2023-05-07T13:25:52;4.88;;;4.53;;
14876;SDS011;69691;48.172;17.070;2023-05-07T13:28:22;5.50;;;5.03;;
14876;SDS011;69691;48.172;17.070;2023-05-07T13:30:49;6.35;;;4.57;;
14876;SDS011;69691;48.172;17.070;2023-05-07T13:33:19;5.15;;;4.60;;
14876;SDS011;69691;48.172;17.070;2023-05-07T13:35:45;5.07;;;4.68;;
14876;SDS011;69691;48.172;17.070;2023-05-07T13:38:11;6.13;;;5.53;;
14876;SDS011;69691;48.172;17.070;2023-05-07T13:40:37;5.78;;;5.15;;
14876;SDS011;69691;48.172;17.070;2023-05-07T13:43:02;5.53;;;5.00;;
14876;SDS011;69691;48.172;17.070;2023-05-07T13:45:29;5.28;;;4.88;;
14876;SDS011;69691;48.172;17.070;2023-05-07T13:47:55;6.18;;;5.03;;
14876;SDS011;69691;48.172;17.070;2023-05-07T13:50:22;8.18;;;5.32;;
14876;SDS011;69691;48.172;17.070;2023-05-07T13:52:48;5.35;;;4.85;;
14876;SDS011;69691;48.172;17.070;2023-05-07T13:55:20;5.43;;;4.93;;
14876;SDS011;69691;48.172;17.070;2023-05-07T13:57:53;6.18;;;4.88;;
14876;SDS011;69691;48.172;17.070;2023-05-07T14:00:24;5.55;;;5.07;;
14876;SDS011;69691;48.172;17.070;2023-05-07T14:02:52;5.35;;;4.85;;
14876;SDS011;69691;48.172;17.070;2023-05-07T14:05:19;5.13;;;4.63;;
14876;SDS011;69691;48.172;17.070;2023-05-07T14:07:48;7.90;;;4.65;;
14876;SDS011;69691;48.172;17.070;2023-05-07T14:10:17;5.57;;;4.80;;
14876;SDS011;69691;48.172;17.070;2023-05-07T14:12:44;4.22;;;3.92;;
14876;SDS011;69691;48.172;17.070;2023-05-07T14:15:12;5.60;;;4.60;;
14876;SDS011;69691;48.172;17.070;2023-05-07T14:17:39;4.60;;;4.20;;
14876;SDS011;69691;48.172;17.070;2023-05-07T14:20:05;4.72;;;4.32;;
14876;SDS011;69691;48.172;17.070;2023-05-07T14:22:32;4.35;;;4.03;;
14876;SDS011;69691;48.172;17.070;2023-05-07T14:24:57;4.53;;;4.20;;
14876;SDS011;69691;48.172;17.070;2023-05-07T14:27:23;5.15;;;4.63;;
14876;SDS011;69691;48.172;17.070;2023-05-07T14:29:49;4.93;;;4.53;;
14876;SDS011;69691;48.172;17.070;2023-05-07T14:32:19;4.45;;;4.10;;